createdAt,value
2023-04-16T00:00:21.520Z,62.72
2023-04-16T00:01:26.802Z,62.07
2023-04-16T00:02:33.392Z,62.66
2023-04-16T00:03:38.988Z,62.38
2023-04-16T00:04:45.844Z,62.38
2023-04-16T00:05:51.147Z,62.74
2023-04-16T00:06:58.045Z,62.85
2023-04-16T00:08:03.447Z,62.53
2023-04-16T00:09:11.818Z,62.56
2023-04-16T00:10:17.509Z,62.82
2023-04-16T00:11:24.113Z,62.49
2023-04-16T00:12:29.435Z,62.37
2023-04-16T00:13:36.026Z,62.68
2023-04-16T00:14:41.315Z,62.63
2023-04-16T00:15:48.587Z,62.63
2023-04-16T00:16:53.918Z,62.72
2023-04-16T00:18:00.549Z,62.33
2023-04-16T00:19:05.875Z,62.28
2023-04-16T00:20:13.370Z,62.43
2023-04-16T00:21:18.774Z,62.57
2023-04-16T00:22:25.322Z,62.65
2023-04-16T00:23:30.600Z,62.36
2023-04-16T00:24:38.899Z,62.18
2023-04-16T00:25:44.693Z,62.49
2023-04-16T00:26:51.241Z,62.54
2023-04-16T00:27:56.496Z,62.31
2023-04-16T00:29:03.012Z,62.69
2023-04-16T00:30:09.343Z,62.33
2023-04-16T00:31:15.961Z,62.53
2023-04-16T00:32:21.302Z,62.60
2023-04-16T00:33:28.254Z,62.39
2023-04-16T00:34:33.468Z,62.61
2023-04-16T00:35:42.742Z,62.57
2023-04-16T00:36:48.003Z,62.42
2023-04-16T00:37:54.617Z,61.93
2023-04-16T00:39:00.048Z,62.04
2023-04-16T00:40:08.868Z,62.01
2023-04-16T00:41:14.176Z,61.59
2023-04-16T00:42:20.728Z,62.18
2023-04-16T00:43:27.227Z,62.00
2023-04-16T00:44:36.415Z,62.14
2023-04-16T00:45:41.699Z,61.40
2023-04-16T00:46:48.564Z,61.55
2023-04-16T00:47:53.888Z,61.50
2023-04-16T00:49:00.783Z,61.93
2023-04-16T00:50:06.828Z,61.89
2023-04-16T00:51:13.462Z,61.31
2023-04-16T00:52:18.798Z,61.04
2023-04-16T00:53:25.448Z,61.44
2023-04-16T00:54:31.102Z,61.21
2023-04-16T00:55:39.373Z,61.39
2023-04-16T00:56:44.572Z,60.94
2023-04-16T00:57:51.107Z,61.02
2023-04-16T00:58:58.091Z,60.82
2023-04-16T01:00:05.067Z,60.42
2023-04-16T01:01:10.434Z,60.70
2023-04-16T01:02:17.333Z,60.42
2023-04-16T01:03:22.845Z,60.66
2023-04-16T01:04:31.343Z,60.46
2023-04-16T01:05:36.627Z,60.89
2023-04-16T01:06:43.108Z,59.96
2023-04-16T01:07:48.303Z,60.19
2023-04-16T01:08:54.868Z,60.20
2023-04-16T01:10:00.205Z,60.60
2023-04-16T01:11:08.626Z,59.88
2023-04-16T01:12:13.847Z,60.23
2023-04-16T01:13:20.369Z,60.19
2023-04-16T01:14:25.622Z,60.79
2023-04-16T01:15:32.278Z,60.54
2023-04-16T01:16:38.101Z,60.73
2023-04-16T01:17:44.676Z,60.39
2023-04-16T01:18:52.152Z,60.02
2023-04-16T01:19:58.802Z,60.01
